createdAt,value
2022-08-17T00:04:20.181Z,5.90
2022-08-17T00:09:23.028Z,5.60
2022-08-17T00:14:25.997Z,6.20
2022-08-17T00:19:28.806Z,7.13
2022-08-17T00:24:32.348Z,5.05
2022-08-17T00:29:35.270Z,6.18
2022-08-17T00:34:38.966Z,5.50
2022-08-17T00:39:41.902Z,6.05
2022-08-17T00:44:45.735Z,5.53
2022-08-17T00:49:48.659Z,6.68
2022-08-17T00:54:55.358Z,7.47
2022-08-17T01:00:15.296Z,5.65
2022-08-17T01:05:27.785Z,6.50
2022-08-17T01:10:58.766Z,5.45
2022-08-17T01:16:17.472Z,8.07
2022-08-17T01:21:44.665Z,7.68
2022-08-17T01:26:48.356Z,7.97
2022-08-17T01:32:00.336Z,6.78
2022-08-17T01:37:03.611Z,6.00
2022-08-17T01:42:36.683Z,5.85
2022-08-17T01:47:40.260Z,8.82
2022-08-17T01:52:54.208Z,7.35
2022-08-17T01:57:57.206Z,5.60
2022-08-17T02:03:01.808Z,8.10
2022-08-17T02:08:04.962Z,7.30
2022-08-17T02:13:08.693Z,6.38
2022-08-17T02:18:13.337Z,6.38
2022-08-17T02:23:16.305Z,6.55
2022-08-17T02:28:19.929Z,6.85
2022-08-17T02:33:23.142Z,6.00
2022-08-17T02:38:45.171Z,7.70
2022-08-17T02:43:47.977Z,6.30
2022-08-17T02:48:51.280Z,5.97
2022-08-17T02:54:05.327Z,8.43
2022-08-17T02:59:17.114Z,6.75
2022-08-17T03:04:20.020Z,6.15
2022-08-17T03:09:23.183Z,9.65
2022-08-17T03:14:26.466Z,12.82
2022-08-17T03:19:29.280Z,10.10
2022-08-17T03:24:32.104Z,8.65
2022-08-17T03:29:35.004Z,7.85
2022-08-17T03:34:38.062Z,7.88
2022-08-17T03:39:40.990Z,7.72
2022-08-17T03:44:48.341Z,7.30
2022-08-17T03:50:10.545Z,8.98
2022-08-17T03:55:36.193Z,7.97
2022-08-17T04:00:45.466Z,9.68
2022-08-17T04:05:48.370Z,10.45
2022-08-17T04:10:51.319Z,7.75
2022-08-17T04:15:54.856Z,10.05
2022-08-17T04:20:57.793Z,7.20
2022-08-17T04:26:01.702Z,7.28
2022-08-17T04:31:06.194Z,8.32
2022-08-17T04:36:10.901Z,8.82
2022-08-17T04:41:33.877Z,9.95
2022-08-17T04:46:37.068Z,7.25
2022-08-17T04:51:56.280Z,7.78
2022-08-17T04:56:59.817Z,9.03
2022-08-17T05:02:02.685Z,9.20
2022-08-17T05:07:05.754Z,9.57
2022-08-17T05:12:09.073Z,6.88
2022-08-17T05:17:11.949Z,7.60
2022-08-17T05:22:15.182Z,7.22
2022-08-17T05:27:18.792Z,6.25
2022-08-17T05:32:39.284Z,7.60
2022-08-17T05:37:43.205Z,7.95
2022-08-17T05:42:46.167Z,15.00
2022-08-17T05:47:48.996Z,9.75
2022-08-17T05:53:07.440Z,10.13
2022-08-17T05:59:13.857Z,7.53
2022-08-17T06:04:57.539Z,11.07
2022-08-17T06:10:35.823Z,12.43
2022-08-17T06:16:33.191Z,12.70
2022-08-17T06:21:48.962Z,7.18
2022-08-17T06:26:54.654Z,8.48
2022-08-17T06:31:58.125Z,8.90
2022-08-17T06:37:33.115Z,10.90
2022-08-17T06:42:55.018Z,6.35
2022-08-17T06:48:53.964Z,8.98
2022-08-17T06:54:18.788Z,6.15
2022-08-17T06:59:54.488Z,6.15
2022-08-17T07:04:59.131Z,5.97
2022-08-17T07:10:02.525Z,7.97
2022-08-17T07:15:20.242Z,8.82
2022-08-17T07:20:23.194Z,9.48
2022-08-17T07:25:26.439Z,10.35
2022-08-17T07:30:47.004Z,5.82
2022-08-17T07:35:50.875Z,7.20
2022-08-17T07:41:03.118Z,7.13
2022-08-17T07:47:11.677Z,5.63
2022-08-17T07:52:50.770Z,5.65
2022-08-17T08:03:13.697Z,5.10
2022-08-17T08:08:43.748Z,4.47
2022-08-17T08:13:46.661Z,4.25
2022-08-17T08:18:56.895Z,6.07
2022-08-17T08:24:30.139Z,4.68
2022-08-17T08:30:07.910Z,7.18
2022-08-17T08:35:39.021Z,6.05
2022-08-17T08:41:21.763Z,5.95
2022-08-17T08:46:42.254Z,5.30
2022-08-17T08:51:55.754Z,4.95
2022-08-17T08:57:31.005Z,5.13
2022-08-17T09:03:52.436Z,6.47
2022-08-17T09:09:34.339Z,4.63
2022-08-17T09:15:09.457Z,4.75
2022-08-17T09:20:27.519Z,5.25
2022-08-17T09:25:45.576Z,6.93
2022-08-17T09:30:55.335Z,5.55
2022-08-17T09:36:44.180Z,8.52
2022-08-17T09:41:59.555Z,4.93
2022-08-17T09:47:45.569Z,5.32
2022-08-17T09:52:54.707Z,4.53
2022-08-17T09:58:56.695Z,6.03
2022-08-17T10:04:20.321Z,4.80
2022-08-17T10:09:49.148Z,4.78
2022-08-17T10:15:34.323Z,4.90
2022-08-17T10:21:29.620Z,5.30
2022-08-17T10:26:46.175Z,5.70
2022-08-17T10:32:05.462Z,4.25
2022-08-17T10:37:25.215Z,4.65
2022-08-17T10:42:55.860Z,4.03
2022-08-17T10:48:20.582Z,4.30
2022-08-17T10:53:32.394Z,3.80
2022-08-17T10:59:00.279Z,3.55
2022-08-17T11:04:50.048Z,4.60
2022-08-17T11:10:20.714Z,3.58
2022-08-17T11:15:32.117Z,5.55
2022-08-17T11:21:39.296Z,3.90
2022-08-17T11:26:58.913Z,4.22
2022-08-17T11:32:27.097Z,3.55
2022-08-17T11:38:05.364Z,3.10
2022-08-17T11:43:28.489Z,4.18
2022-08-17T11:49:14.092Z,3.03
2022-08-17T11:54:34.458Z,2.95
2022-08-17T11:59:40.026Z,4.82
2022-08-17T12:05:16.983Z,2.80
2022-08-17T12:10:31.649Z,2.60
2022-08-17T12:15:49.637Z,3.10
2022-08-17T12:21:53.898Z,2.40
2022-08-17T12:27:01.834Z,3.70
2022-08-17T12:32:07.201Z,2.92
2022-08-17T12:37:35.287Z,4.67
2022-08-17T12:47:42.498Z,3.20
2022-08-17T12:52:45.796Z,4.38
2022-08-17T12:57:59.777Z,9.20
2022-08-17T13:08:48.141Z,1.98
2022-08-17T13:13:56.553Z,5.93
2022-08-17T13:19:39.923Z,3.13
2022-08-17T13:25:03.847Z,2.63
2022-08-17T13:30:12.869Z,2.90
2022-08-17T13:35:41.081Z,3.28
2022-08-17T13:40:53.229Z,4.55
2022-08-17T13:46:10.957Z,2.92
2022-08-17T13:51:23.478Z,2.95
2022-08-17T13:56:39.177Z,4.30
2022-08-17T14:01:52.827Z,3.97
2022-08-17T14:07:08.851Z,3.92
2022-08-17T14:12:16.151Z,5.10
2022-08-17T14:17:19.387Z,4.70
2022-08-17T14:22:30.631Z,2.25
2022-08-17T14:27:41.582Z,5.00
2022-08-17T14:33:00.391Z,2.65
2022-08-17T14:38:04.038Z,2.72
2022-08-17T14:43:06.985Z,2.85
2022-08-17T14:48:10.241Z,2.17
2022-08-17T14:53:16.334Z,3.80
2022-08-17T14:58:19.526Z,4.00
2022-08-17T15:03:23.526Z,2.38
2022-08-17T15:08:26.678Z,3.65
2022-08-17T15:13:30.785Z,3.15
2022-08-17T15:18:33.579Z,3.85
2022-08-17T15:23:37.505Z,6.63
2022-08-17T15:28:40.490Z,12.30
2022-08-17T15:33:43.324Z,2.35
2022-08-17T15:38:47.192Z,3.00
2022-08-17T15:43:50.344Z,3.33
2022-08-17T15:48:58.973Z,3.25
2022-08-17T15:54:22.106Z,2.58
2022-08-17T15:59:26.077Z,2.03
2022-08-17T16:04:30.929Z,3.75
2022-08-17T16:09:34.842Z,2.20
2022-08-17T16:14:37.994Z,5.45
2022-08-17T16:19:41.838Z,2.70
2022-08-17T16:24:56.965Z,2.70
2022-08-17T16:30:01.169Z,5.80
2022-08-17T16:35:12.103Z,3.72
2022-08-17T16:40:17.655Z,2.05
2022-08-17T16:45:28.256Z,2.95
2022-08-17T16:50:32.438Z,4.70
2022-08-17T16:55:35.849Z,3.65
2022-08-17T17:00:40.065Z,3.40
2022-08-17T17:06:14.418Z,4.72
2022-08-17T17:11:33.612Z,4.03
2022-08-17T17:16:45.826Z,3.88
2022-08-17T17:22:14.066Z,7.55
2022-08-17T17:27:37.313Z,4.67
2022-08-17T17:33:03.013Z,5.97
2022-08-17T17:38:15.445Z,7.88
2022-08-17T17:43:38.900Z,5.00
2022-08-17T17:48:43.238Z,6.45
2022-08-17T17:54:07.223Z,4.03
2022-08-17T17:59:38.310Z,3.60
2022-08-17T18:04:59.354Z,2.60
2022-08-17T18:10:31.796Z,4.15
2022-08-17T18:15:51.155Z,2.85
2022-08-17T18:21:07.234Z,4.72
2022-08-17T18:26:10.187Z,2.83
2022-08-17T18:31:21.639Z,4.20
2022-08-17T18:36:39.915Z,6.55
2022-08-17T18:41:54.695Z,3.05
2022-08-17T18:47:28.493Z,5.45
2022-08-17T18:52:34.017Z,3.38
2022-08-17T18:57:50.523Z,2.63
2022-08-17T19:03:00.128Z,2.60
2022-08-17T19:08:24.951Z,3.55
2022-08-17T19:13:31.292Z,2.30
2022-08-17T19:18:56.166Z,2.67
2022-08-17T19:24:11.560Z,4.45
2022-08-17T19:30:02.686Z,3.08
2022-08-17T19:35:16.641Z,4.15
2022-08-17T19:41:01.952Z,3.63
2022-08-17T19:46:26.454Z,4.60
2022-08-17T19:51:57.161Z,3.08
2022-08-17T19:57:13.249Z,3.17
2022-08-17T20:02:37.577Z,3.35
2022-08-17T20:07:56.418Z,5.60
2022-08-17T20:13:11.701Z,3.17
2022-08-17T20:18:36.836Z,3.78
2022-08-17T20:24:29.949Z,5.68
2022-08-17T20:29:54.959Z,5.15
2022-08-17T20:35:26.942Z,4.07
2022-08-17T20:40:33.801Z,5.03
2022-08-17T20:46:02.566Z,3.92
2022-08-17T20:51:28.738Z,3.60
2022-08-17T20:56:43.641Z,7.93
2022-08-17T21:02:18.702Z,6.20
2022-08-17T21:07:43.252Z,5.65
2022-08-17T21:13:07.790Z,5.40
2022-08-17T21:18:38.873Z,5.35
2022-08-17T21:24:04.853Z,12.45
2022-08-17T21:29:30.831Z,4.68
2022-08-17T21:34:37.917Z,4.80
2022-08-17T21:39:41.676Z,4.60
2022-08-17T21:44:50.743Z,2.95
2022-08-17T21:49:56.447Z,5.13
2022-08-17T21:55:02.544Z,4.63
2022-08-17T22:00:17.259Z,3.55
2022-08-17T22:05:39.622Z,3.17
2022-08-17T22:10:46.247Z,3.33
2022-08-17T22:16:04.380Z,4.43
2022-08-17T22:21:19.380Z,4.60
2022-08-17T22:26:52.675Z,4.85
2022-08-17T22:31:57.546Z,4.30
2022-08-17T22:37:27.381Z,3.85
2022-08-17T22:42:31.251Z,3.60
2022-08-17T22:47:41.204Z,3.90
2022-08-17T22:53:04.019Z,4.53
2022-08-17T22:58:36.894Z,4.70
2022-08-17T23:03:56.913Z,4.90
2022-08-17T23:09:03.112Z,3.35
2022-08-17T23:14:06.037Z,5.28
2022-08-17T23:19:12.477Z,4.03
2022-08-17T23:24:23.005Z,4.90
2022-08-17T23:29:29.483Z,6.95
2022-08-17T23:34:32.980Z,3.75
2022-08-17T23:39:36.550Z,4.55
2022-08-17T23:44:41.683Z,3.58
2022-08-17T23:49:44.499Z,3.55
2022-08-17T23:54:49.299Z,4.68
2022-08-17T23:59:52.342Z,3.72
